sensor_id;sensor_type;location;lat;lon;timestamp;pressure;altitude;pressure_sealevel;temperature
24201;BMP280;2801;50.972;7.856;2023-05-10T00:01:02;96775.19;;;13.21
24201;BMP280;2801;50.972;7.856;2023-05-10T00:03:29;96774.44;;;13.21
24201;BMP280;2801;50.972;7.856;2023-05-10T00:05:56;96777.47;;;13.19
24201;BMP280;2801;50.972;7.856;2023-05-10T00:08:23;96768.22;;;13.17
24201;BMP280;2801;50.972;7.856;2023-05-10T00:10:50;96780.66;;;13.25
24201;BMP280;2801;50.972;7.856;2023-05-10T00:13:17;96780.66;;;13.25
24201;BMP280;2801;50.972;7.856;2023-05-10T00:15:44;96773.38;;;13.25
24201;BMP280;2801;50.972;7.856;2023-05-10T00:18:11;96778.81;;;13.29
24201;BMP280;2801;50.972;7.856;2023-05-10T00:20:38;96778.38;;;13.27
24201;BMP280;2801;50.972;7.856;2023-05-10T00:23:05;96782.66;;;13.28
24201;BMP280;2801;50.972;7.856;2023-05-10T00:25:32;96773.38;;;13.25
24201;BMP280;2801;50.972;7.856;2023-05-10T00:27:59;96769.97;;;13.28
24201;BMP280;2801;50.972;7.856;2023-05-10T00:30:27;96772.72;;;13.32
24201;BMP280;2801;50.972;7.856;2023-05-10T00:32:54;96769.69;;;13.33
24201;BMP280;2801;50.972;7.856;2023-05-10T00:35:22;96774.72;;;13.35
24201;BMP280;2801;50.972;7.856;2023-05-10T00:37:49;96773.22;;;13.37
24201;BMP280;2801;50.972;7.856;2023-05-10T00:40:16;96767.47;;;13.39
24201;BMP280;2801;50.972;7.856;2023-05-10T00:42:43;96765.06;;;13.34
24201;BMP280;2801;50.972;7.856;2023-05-10T00:45:10;96770.19;;;13.39
24201;BMP280;2801;50.972;7.856;2023-05-10T00:47:38;96775.44;;;13.32
24201;BMP280;2801;50.972;7.856;2023-05-10T00:50:06;96776.13;;;13.29
24201;BMP280;2801;50.972;7.856;2023-05-10T00:52:33;96774.59;;;13.28
24201;BMP280;2801;50.972;7.856;2023-05-10T00:55:01;96771.88;;;13.28
24201;BMP280;2801;50.972;7.856;2023-05-10T00:57:28;96773.88;;;13.31
24201;BMP280;2801;50.972;7.856;2023-05-10T00:59:55;96777.41;;;13.35
24201;BMP280;2801;50.972;7.856;2023-05-10T01:02:22;96770.81;;;13.32
24201;BMP280;2801;50.972;7.856;2023-05-10T01:04:49;96769.91;;;13.25
24201;BMP280;2801;50.972;7.856;2023-05-10T01:07:16;96771.03;;;13.24
24201;BMP280;2801;50.972;7.856;2023-05-10T01:09:43;96765.56;;;13.20
24201;BMP280;2801;50.972;7.856;2023-05-10T01:12:10;96771.66;;;13.17
24201;BMP280;2801;50.972;7.856;2023-05-10T01:14:38;96763.97;;;13.16
24201;BMP280;2801;50.972;7.856;2023-05-10T01:17:06;96771.66;;;13.17
24201;BMP280;2801;50.972;7.856;2023-05-10T01:19:35;96777.06;;;13.17
24201;BMP280;2801;50.972;7.856;2023-05-10T01:22:31;96778.91;;;13.13
24201;BMP280;2801;50.972;7.856;2023-05-10T01:25:37;96779.97;;;13.09
24201;BMP280;2801;50.972;7.856;2023-05-10T01:32:12;96786.59;;;12.96
24201;BMP280;2801;50.972;7.856;2023-05-10T01:34:55;96790.78;;;12.93
24201;BMP280;2801;50.972;7.856;2023-05-10T01:37:48;96787.22;;;12.89
24201;BMP280;2801;50.972;7.856;2023-05-10T01:40:30;96789.47;;;12.87
24201;BMP280;2801;50.972;7.856;2023-05-10T01:43:04;96783.84;;;12.92
24201;BMP280;2801;50.972;7.856;2023-05-10T01:45:49;96789.13;;;12.89
24201;BMP280;2801;50.972;7.856;2023-05-10T01:48:19;96788.44;;;12.92
24201;BMP280;2801;50.972;7.856;2023-05-10T01:50:48;96787.22;;;12.89
24201;BMP280;2801;50.972;7.856;2023-05-10T01:53:19;96787.59;;;12.88
24201;BMP280;2801;50.972;7.856;2023-05-10T01:55:53;96797.19;;;12.89
24201;BMP280;2801;50.972;7.856;2023-05-10T01:58:28;96791.13;;;12.92
24201;BMP280;2801;50.972;7.856;2023-05-10T02:01:00;96785.75;;;12.92
24201;BMP280;2801;50.972;7.856;2023-05-10T02:03:30;96785.03;;;12.95
24201;BMP280;2801;50.972;7.856;2023-05-10T02:05:59;96781.84;;;12.89
24201;BMP280;2801;50.972;7.856;2023-05-10T02:08:26;96779.00;;;12.98
24201;BMP280;2801;50.972;7.856;2023-05-10T02:10:56;96794.44;;;13.01
24201;BMP280;2801;50.972;7.856;2023-05-10T02:13:26;96796.34;;;13.00
24201;BMP280;2801;50.972;7.856;2023-05-10T02:15:55;96797.88;;;13.01
24201;BMP280;2801;50.972;7.856;2023-05-10T02:18:25;96797.53;;;13.03
24201;BMP280;2801;50.972;7.856;2023-05-10T02:20:55;96797.97;;;13.05
24201;BMP280;2801;50.972;7.856;2023-05-10T02:23:23;96794.94;;;13.06
24201;BMP280;2801;50.972;7.856;2023-05-10T02:25:52;96799.16;;;13.07
24201;BMP280;2801;50.972;7.856;2023-05-10T02:28:23;96806.53;;;13.10
24201;BMP280;2801;50.972;7.856;2023-05-10T02:30:52;96800.31;;;13.06
24201;BMP280;2801;50.972;7.856;2023-05-10T02:33:21;96802.91;;;13.03
24201;BMP280;2801;50.972;7.856;2023-05-10T02:35:50;96797.22;;;13.08
24201;BMP280;2801;50.972;7.856;2023-05-10T02:38:20;96806.09;;;13.08
24201;BMP280;2801;50.972;7.856;2023-05-10T02:40:48;96799.38;;;12.99
24201;BMP280;2801;50.972;7.856;2023-05-10T02:43:18;96805.53;;;12.99
24201;BMP280;2801;50.972;7.856;2023-05-10T02:45:47;96801.78;;;13.04
24201;BMP280;2801;50.972;7.856;2023-05-10T02:48:15;96797.63;;;13.06
24201;BMP280;2801;50.972;7.856;2023-05-10T02:50:47;96794.50;;;13.04
24201;BMP280;2801;50.972;7.856;2023-05-10T02:53:36;96799.81;;;13.01
24201;BMP280;2801;50.972;7.856;2023-05-10T02:56:15;96800.22;;;13.03
24201;BMP280;2801;50.972;7.856;2023-05-10T02:58:43;96803.34;;;13.05
24201;BMP280;2801;50.972;7.856;2023-05-10T03:01:10;96806.03;;;13.05
24201;BMP280;2801;50.972;7.856;2023-05-10T03:03:37;96808.72;;;13.05
24201;BMP280;2801;50.972;7.856;2023-05-10T03:06:05;96804.91;;;13.06
24201;BMP280;2801;50.972;7.856;2023-05-10T03:08:31;96799.16;;;13.07
24201;BMP280;2801;50.972;7.856;2023-05-10T03:11:43;96806.88;;;13.09
24201;BMP280;2801;50.972;7.856;2023-05-10T03:20:20;96808.72;;;13.05
24201;BMP280;2801;50.972;7.856;2023-05-10T03:22:55;96810.00;;;13.11
24201;BMP280;2801;50.972;7.856;2023-05-10T03:25:23;96802.25;;;13.09
24201;BMP280;2801;50.972;7.856;2023-05-10T03:27:52;96801.38;;;13.02
24201;BMP280;2801;50.972;7.856;2023-05-10T03:30:19;96813.81;;;13.10
24201;BMP280;2801;50.972;7.856;2023-05-10T03:32:46;96812.31;;;13.12
24201;BMP280;2801;50.972;7.856;2023-05-10T03:35:14;96819.25;;;13.13
24201;BMP280;2801;50.972;7.856;2023-05-10T03:37:41;96805.69;;;13.06
24201;BMP280;2801;50.972;7.856;2023-05-10T03:40:09;96811.19;;;13.13
24201;BMP280;2801;50.972;7.856;2023-05-10T03:42:36;96815.50;;;13.18
24201;BMP280;2801;50.972;7.856;2023-05-10T03:45:04;96815.94;;;13.20
24201;BMP280;2801;50.972;7.856;2023-05-10T03:47:31;96817.16;;;13.22
24201;BMP280;2801;50.972;7.856;2023-05-10T03:49:58;96819.00;;;13.18
24201;BMP280;2801;50.972;7.856;2023-05-10T03:52:25;96828.63;;;13.19
24201;BMP280;2801;50.972;7.856;2023-05-10T03:54:51;96820.25;;;13.24
24201;BMP280;2801;50.972;7.856;2023-05-10T03:57:18;96820.19;;;13.21
24201;BMP280;2801;50.972;7.856;2023-05-10T03:59:45;96820.59;;;13.23
24201;BMP280;2801;50.972;7.856;2023-05-10T04:02:12;96825.28;;;13.26
24201;BMP280;2801;50.972;7.856;2023-05-10T04:04:39;96814.81;;;13.21
24201;BMP280;2801;50.972;7.856;2023-05-10T04:07:06;96823.72;;;13.25
24201;BMP280;2801;50.972;7.856;2023-05-10T04:09:33;96822.19;;;13.24
24201;BMP280;2801;50.972;7.856;2023-05-10T04:12:00;96827.06;;;13.18
24201;BMP280;2801;50.972;7.856;2023-05-10T04:14:28;96828.69;;;13.23
24201;BMP280;2801;50.972;7.856;2023-05-10T04:16:55;96823.72;;;13.25
24201;BMP280;2801;50.972;7.856;2023-05-10T04:19:22;96833.44;;;13.29
24201;BMP280;2801;50.972;7.856;2023-05-10T04:21:50;96833.09;;;13.31
24201;BMP280;2801;50.972;7.856;2023-05-10T04:24:17;96831.88;;;13.28
24201;BMP280;2801;50.972;7.856;2023-05-10T04:26:43;96835.78;;;13.31
24201;BMP280;2801;50.972;7.856;2023-05-10T04:29:10;96835.41;;;13.32
24201;BMP280;2801;50.972;7.856;2023-05-10T04:31:37;96841.16;;;13.31
24201;BMP280;2801;50.972;7.856;2023-05-10T04:34:05;96839.22;;;13.31
24201;BMP280;2801;50.972;7.856;2023-05-10T04:36:32;96831.44;;;13.26
24201;BMP280;2801;50.972;7.856;2023-05-10T04:39:03;96846.91;;;13.29
24201;BMP280;2801;50.972;7.856;2023-05-10T04:41:31;96845.66;;;13.27
24201;BMP280;2801;50.972;7.856;2023-05-10T04:43:57;96851.78;;;13.24
24201;BMP280;2801;50.972;7.856;2023-05-10T04:46:24;96849.00;;;13.20
24201;BMP280;2801;50.972;7.856;2023-05-10T04:48:51;96848.16;;;13.16
24201;BMP280;2801;50.972;7.856;2023-05-10T04:51:18;96861.25;;;13.18
24201;BMP280;2801;50.972;7.856;2023-05-10T04:53:45;96864.41;;;13.20
24201;BMP280;2801;50.972;7.856;2023-05-10T04:56:30;96869.00;;;13.19
24201;BMP280;2801;50.972;7.856;2023-05-10T04:58:57;96872.88;;;13.22
24201;BMP280;2801;50.972;7.856;2023-05-10T05:01:24;96870.88;;;13.19
24201;BMP280;2801;50.972;7.856;2023-05-10T05:03:51;96870.97;;;13.22
24201;BMP280;2801;50.972;7.856;2023-05-10T05:06:19;96868.00;;;13.27
24201;BMP280;2801;50.972;7.856;2023-05-10T05:08:47;96869.91;;;13.27
24201;BMP280;2801;50.972;7.856;2023-05-10T05:11:17;96876.91;;;13.31
24201;BMP280;2801;50.972;7.856;2023-05-10T05:13:44;96894.28;;;13.34
24201;BMP280;2801;50.972;7.856;2023-05-10T05:16:11;96885.94;;;13.39
24201;BMP280;2801;50.972;7.856;2023-05-10T05:18:38;96878.72;;;13.43
24201;BMP280;2801;50.972;7.856;2023-05-10T05:21:16;96879.13;;;13.45
24201;BMP280;2801;50.972;7.856;2023-05-10T05:23:43;96877.63;;;13.47
24201;BMP280;2801;50.972;7.856;2023-05-10T05:26:11;96885.13;;;13.38
24201;BMP280;2801;50.972;7.856;2023-05-10T05:28:38;96884.78;;;13.40
24201;BMP280;2801;50.972;7.856;2023-05-10T05:31:06;96897.59;;;13.46
24201;BMP280;2801;50.972;7.856;2023-05-10T05:33:37;96900.00;;;13.51
24201;BMP280;2801;50.972;7.856;2023-05-10T05:36:05;96902.09;;;13.58
24201;BMP280;2801;50.972;7.856;2023-05-10T05:38:32;96904.91;;;13.65
24201;BMP280;2801;50.972;7.856;2023-05-10T05:40:59;96909.66;;;13.71
24201;BMP280;2801;50.972;7.856;2023-05-10T05:43:26;96914.69;;;13.73
24201;BMP280;2801;50.972;7.856;2023-05-10T05:45:53;96909.31;;;13.73
24201;BMP280;2801;50.972;7.856;2023-05-10T05:48:21;96914.03;;;13.79
24201;BMP280;2801;50.972;7.856;2023-05-10T05:50:47;96916.09;;;13.86
24201;BMP280;2801;50.972;7.856;2023-05-10T05:53:14;96925.84;;;13.94
24201;BMP280;2801;50.972;7.856;2023-05-10T05:55:57;96926.69;;;13.98
24201;BMP280;2801;50.972;7.856;2023-05-10T05:58:25;96921.38;;;14.01
24201;BMP280;2801;50.972;7.856;2023-05-10T06:00:52;96928.63;;;13.97
24201;BMP280;2801;50.972;7.856;2023-05-10T06:03:20;96934.72;;;13.94
24201;BMP280;2801;50.972;7.856;2023-05-10T06:05:47;96935.56;;;13.98
24201;BMP280;2801;50.972;7.856;2023-05-10T06:08:14;96926.81;;;14.05
24201;BMP280;2801;50.972;7.856;2023-05-10T06:10:41;96924.22;;;14.08
24201;BMP280;2801;50.972;7.856;2023-05-10T06:13:08;96925.63;;;14.44
24201;BMP280;2801;50.972;7.856;2023-05-10T06:15:35;96938.72;;;14.68
24201;BMP280;2801;50.972;7.856;2023-05-10T06:18:02;96942.28;;;14.72
24201;BMP280;2801;50.972;7.856;2023-05-10T06:20:29;96937.53;;;14.65
24201;BMP280;2801;50.972;7.856;2023-05-10T06:22:58;96945.63;;;14.65
24201;BMP280;2801;50.972;7.856;2023-05-10T06:25:25;96943.66;;;14.62
24201;BMP280;2801;50.972;7.856;2023-05-10T06:27:52;96949.41;;;14.61
24201;BMP280;2801;50.972;7.856;2023-05-10T06:30:25;96948.22;;;14.58
24201;BMP280;2801;50.972;7.856;2023-05-10T06:32:56;96952.09;;;14.61
24201;BMP280;2801;50.972;7.856;2023-05-10T06:35:24;96951.75;;;14.62
24201;BMP280;2801;50.972;7.856;2023-05-10T06:37:51;96961.03;;;14.65
24201;BMP280;2801;50.972;7.856;2023-05-10T06:40:18;96954.00;;;14.60
24201;BMP280;2801;50.972;7.856;2023-05-10T06:42:47;96959.72;;;14.55
24201;BMP280;2801;50.972;7.856;2023-05-10T06:45:15;96954.41;;;14.59
24201;BMP280;2801;50.972;7.856;2023-05-10T06:47:43;96950.34;;;14.49
24201;BMP280;2801;50.972;7.856;2023-05-10T06:50:11;96961.69;;;14.58
24201;BMP280;2801;50.972;7.856;2023-05-10T06:52:38;96959.78;;;14.59
24201;BMP280;2801;50.972;7.856;2023-05-10T06:55:06;96964.03;;;14.60
24201;BMP280;2801;50.972;7.856;2023-05-10T06:57:33;96961.69;;;14.58
24201;BMP280;2801;50.972;7.856;2023-05-10T07:00:01;96965.91;;;14.56
24201;BMP280;2801;50.972;7.856;2023-05-10T07:02:30;96969.38;;;14.56
24201;BMP280;2801;50.972;7.856;2023-05-10T07:04:57;96969.63;;;14.48
24201;BMP280;2801;50.972;7.856;2023-05-10T07:07:28;96970.75;;;14.47
24201;BMP280;2801;50.972;7.856;2023-05-10T07:09:55;96968.03;;;14.47
24201;BMP280;2801;50.972;7.856;2023-05-10T07:12:24;96984.00;;;14.55
24201;BMP280;2801;50.972;7.856;2023-05-10T07:14:51;96955.00;;;14.49
24201;BMP280;2801;50.972;7.856;2023-05-10T07:17:18;96974.88;;;14.63
24201;BMP280;2801;50.972;7.856;2023-05-10T07:19:46;96980.00;;;14.68
24201;BMP280;2801;50.972;7.856;2023-05-10T07:22:12;96984.13;;;14.62
24201;BMP280;2801;50.972;7.856;2023-05-10T07:24:40;96979.03;;;14.57
24201;BMP280;2801;50.972;7.856;2023-05-10T07:27:07;96983.94;;;14.52
24201;BMP280;2801;50.972;7.856;2023-05-10T07:29:35;96985.38;;;14.46
24201;BMP280;2801;50.972;7.856;2023-05-10T07:32:02;96992.09;;;14.33
24201;BMP280;2801;50.972;7.856;2023-05-10T07:34:29;96988.41;;;14.22
24201;BMP280;2801;50.972;7.856;2023-05-10T07:37:00;96989.75;;;14.12
24201;BMP280;2801;50.972;7.856;2023-05-10T07:39:27;96991.00;;;13.99
24201;BMP280;2801;50.972;7.856;2023-05-10T07:41:55;96995.91;;;13.94
24201;BMP280;2801;50.972;7.856;2023-05-10T07:44:22;96995.91;;;13.94
24201;BMP280;2801;50.972;7.856;2023-05-10T07:46:50;97005.56;;;13.95
24201;BMP280;2801;50.972;7.856;2023-05-10T07:49:17;97004.50;;;13.99
24201;BMP280;2801;50.972;7.856;2023-05-10T07:51:44;97003.50;;;14.07
24201;BMP280;2801;50.972;7.856;2023-05-10T07:54:11;97002.03;;;14.10
24201;BMP280;2801;50.972;7.856;2023-05-10T07:56:39;97002.13;;;14.17
24201;BMP280;2801;50.972;7.856;2023-05-10T07:59:16;97007.03;;;14.30
24201;BMP280;2801;50.972;7.856;2023-05-10T08:01:43;97002.56;;;14.38
24201;BMP280;2801;50.972;7.856;2023-05-10T08:04:11;97004.56;;;14.41
24201;BMP280;2801;50.972;7.856;2023-05-10T08:06:39;97004.25;;;14.46
24201;BMP280;2801;50.972;7.856;2023-05-10T08:09:07;97005.66;;;14.59
24201;BMP280;2801;50.972;7.856;2023-05-10T08:11:34;97006.53;;;14.66
24201;BMP280;2801;50.972;7.856;2023-05-10T08:14:01;97011.13;;;14.66
24201;BMP280;2801;50.972;7.856;2023-05-10T08:16:29;97015.66;;;14.58
24201;BMP280;2801;50.972;7.856;2023-05-10T08:18:56;97023.38;;;14.60
24201;BMP280;2801;50.972;7.856;2023-05-10T08:21:23;97022.09;;;14.54
24201;BMP280;2801;50.972;7.856;2023-05-10T08:23:50;97020.44;;;14.46
24201;BMP280;2801;50.972;7.856;2023-05-10T08:26:17;97019.16;;;14.40
24201;BMP280;2801;50.972;7.856;2023-05-10T08:28:44;97019.22;;;14.43
24201;BMP280;2801;50.972;7.856;2023-05-10T08:31:11;97019.16;;;14.40
24201;BMP280;2801;50.972;7.856;2023-05-10T08:33:38;97022.63;;;14.40
24201;BMP280;2801;50.972;7.856;2023-05-10T08:36:08;97029.53;;;14.38
24201;BMP280;2801;50.972;7.856;2023-05-10T08:38:35;97027.19;;;14.36
24201;BMP280;2801;50.972;7.856;2023-05-10T08:41:02;97031.94;;;14.43
24201;BMP280;2801;50.972;7.856;2023-05-10T08:43:31;97036.03;;;14.56
24201;BMP280;2801;50.972;7.856;2023-05-10T08:46:01;97039.63;;;14.63
24201;BMP280;2801;50.972;7.856;2023-05-10T08:48:34;97034.59;;;14.62
24201;BMP280;2801;50.972;7.856;2023-05-10T08:51:03;97036.53;;;14.61
24201;BMP280;2801;50.972;7.856;2023-05-10T08:53:35;97039.56;;;14.60
24201;BMP280;2801;50.972;7.856;2023-05-10T08:56:03;97046.47;;;14.57
24201;BMP280;2801;50.972;7.856;2023-05-10T08:58:31;97033.97;;;14.49
24201;BMP280;2801;50.972;7.856;2023-05-10T09:01:00;97045.69;;;14.57
24201;BMP280;2801;50.972;7.856;2023-05-10T09:03:27;97046.53;;;14.61
24201;BMP280;2801;50.972;7.856;2023-05-10T09:05:55;97046.22;;;14.66
24201;BMP280;2801;50.972;7.856;2023-05-10T09:08:26;97042.56;;;14.77
24201;BMP280;2801;50.972;7.856;2023-05-10T09:10:54;97047.44;;;14.91
24201;BMP280;2801;50.972;7.856;2023-05-10T09:13:23;97053.06;;;15.05
24201;BMP280;2801;50.972;7.856;2023-05-10T09:15:51;97046.88;;;15.05
24201;BMP280;2801;50.972;7.856;2023-05-10T09:18:19;97058.88;;;15.07
24201;BMP280;2801;50.972;7.856;2023-05-10T09:20:47;97055.94;;;15.16
24201;BMP280;2801;50.972;7.856;2023-05-10T09:23:15;97057.59;;;15.24
24201;BMP280;2801;50.972;7.856;2023-05-10T09:25:42;97063.34;;;15.22
24201;BMP280;2801;50.972;7.856;2023-05-10T09:28:09;97067.31;;;15.28
24201;BMP280;2801;50.972;7.856;2023-05-10T09:30:37;97066.75;;;15.38
24201;BMP280;2801;50.972;7.856;2023-05-10T09:33:04;97067.75;;;15.56
24201;BMP280;2801;50.972;7.856;2023-05-10T09:35:32;97064.84;;;15.68
24201;BMP280;2801;50.972;7.856;2023-05-10T09:38:03;97056.72;;;15.65
24201;BMP280;2801;50.972;7.856;2023-05-10T09:40:31;97064.59;;;15.51
24201;BMP280;2801;50.972;7.856;2023-05-10T09:45:33;97067.97;;;15.44
24201;BMP280;2801;50.972;7.856;2023-05-10T09:48:05;97068.50;;;15.53
24201;BMP280;2801;50.972;7.856;2023-05-10T09:50:32;97061.25;;;15.57
24201;BMP280;2801;50.972;7.856;2023-05-10T09:53:03;97062.78;;;15.58
24201;BMP280;2801;50.972;7.856;2023-05-10T09:55:41;97050.75;;;16.11
24201;BMP280;2801;50.972;7.856;2023-05-10T09:58:08;97052.31;;;16.82
24201;BMP280;2801;50.972;7.856;2023-05-10T10:00:40;97052.41;;;16.92
24201;BMP280;2801;50.972;7.856;2023-05-10T10:03:22;97049.84;;;17.06
24201;BMP280;2801;50.972;7.856;2023-05-10T10:05:49;97056.56;;;17.23
24201;BMP280;2801;50.972;7.856;2023-05-10T10:08:17;97051.19;;;17.30
24201;BMP280;2801;50.972;7.856;2023-05-10T10:10:44;97050.44;;;17.33
24201;BMP280;2801;50.972;7.856;2023-05-10T10:13:14;97053.16;;;17.36
24201;BMP280;2801;50.972;7.856;2023-05-10T10:15:42;97060.28;;;17.51
24201;BMP280;2801;50.972;7.856;2023-05-10T10:18:14;97049.09;;;17.60
24201;BMP280;2801;50.972;7.856;2023-05-10T10:20:42;97049.63;;;17.86
24201;BMP280;2801;50.972;7.856;2023-05-10T10:23:09;97047.78;;;18.04
24201;BMP280;2801;50.972;7.856;2023-05-10T10:25:38;97056.72;;;18.08
24201;BMP280;2801;50.972;7.856;2023-05-10T10:28:16;97055.88;;;17.94
24201;BMP280;2801;50.972;7.856;2023-05-10T10:30:51;97049.63;;;17.83
24201;BMP280;2801;50.972;7.856;2023-05-10T10:36:08;97062.66;;;17.63
24201;BMP280;2801;50.972;7.856;2023-05-10T10:41:37;97060.38;;;17.65
24201;BMP280;2801;50.972;7.856;2023-05-10T10:52:35;97053.69;;;18.24
24201;BMP280;2801;50.972;7.856;2023-05-10T10:55:20;97052.16;;;18.27
24201;BMP280;2801;50.972;7.856;2023-05-10T10:57:56;97050.22;;;18.27
24201;BMP280;2801;50.972;7.856;2023-05-10T11:00:35;97049.94;;;18.50
24201;BMP280;2801;50.972;7.856;2023-05-10T11:03:08;97054.69;;;18.91
24201;BMP280;2801;50.972;7.856;2023-05-10T11:09:01;97054.66;;;18.84
24201;BMP280;2801;50.972;7.856;2023-05-10T11:11:14;97042.25;;;18.83
24201;BMP280;2801;50.972;7.856;2023-05-10T11:13:46;97058.53;;;18.76
24201;BMP280;2801;50.972;7.856;2023-05-10T11:16:22;97060.84;;;18.64
24201;BMP280;2801;50.972;7.856;2023-05-10T11:19:04;97075.09;;;18.36
24201;BMP280;2801;50.972;7.856;2023-05-10T11:21:33;97081.88;;;18.05
24201;BMP280;2801;50.972;7.856;2023-05-10T11:24:01;97079.66;;;17.57
24201;BMP280;2801;50.972;7.856;2023-05-10T11:26:35;97086.59;;;17.07
24201;BMP280;2801;50.972;7.856;2023-05-10T11:29:02;97088.81;;;16.58
24201;BMP280;2801;50.972;7.856;2023-05-10T11:31:31;97103.50;;;16.28
24201;BMP280;2801;50.972;7.856;2023-05-10T11:33:59;97104.06;;;15.85
24201;BMP280;2801;50.972;7.856;2023-05-10T11:36:33;97109.19;;;15.64
24201;BMP280;2801;50.972;7.856;2023-05-10T11:39:01;97112.00;;;15.45
24201;BMP280;2801;50.972;7.856;2023-05-10T11:41:30;97114.47;;;15.34
24201;BMP280;2801;50.972;7.856;2023-05-10T11:43:58;97107.53;;;15.33
24201;BMP280;2801;50.972;7.856;2023-05-10T11:46:27;97117.97;;;15.35
24201;BMP280;2801;50.972;7.856;2023-05-10T11:49:00;97120.34;;;15.36
24201;BMP280;2801;50.972;7.856;2023-05-10T11:51:28;97127.34;;;15.41
24201;BMP280;2801;50.972;7.856;2023-05-10T11:53:56;97111.88;;;15.38
24201;BMP280;2801;50.972;7.856;2023-05-10T11:56:24;97123.63;;;15.49
24201;BMP280;2801;50.972;7.856;2023-05-10T11:58:57;97129.63;;;15.61
24201;BMP280;2801;50.972;7.856;2023-05-10T12:01:26;97127.44;;;15.70
24201;BMP280;2801;50.972;7.856;2023-05-10T12:03:56;97127.91;;;15.76
24201;BMP280;2801;50.972;7.856;2023-05-10T12:06:30;97128.69;;;15.76
24201;BMP280;2801;50.972;7.856;2023-05-10T12:08:58;97132.94;;;15.77
24201;BMP280;2801;50.972;7.856;2023-05-10T12:11:28;97130.56;;;15.72
24201;BMP280;2801;50.972;7.856;2023-05-10T12:13:55;97132.84;;;15.70
24201;BMP280;2801;50.972;7.856;2023-05-10T12:16:28;97128.63;;;15.73
24201;BMP280;2801;50.972;7.856;2023-05-10T12:19:00;97125.19;;;15.76
24201;BMP280;2801;50.972;7.856;2023-05-10T12:21:30;97139.97;;;15.82
24201;BMP280;2801;50.972;7.856;2023-05-10T12:24:04;97129.16;;;15.82
24201;BMP280;2801;50.972;7.856;2023-05-10T12:26:32;97133.44;;;15.86
24201;BMP280;2801;50.972;7.856;2023-05-10T12:29:18;97137.41;;;15.92
24201;BMP280;2801;50.972;7.856;2023-05-10T12:31:58;97138.00;;;16.08
24201;BMP280;2801;50.972;7.856;2023-05-10T12:34:35;97140.25;;;16.03
24201;BMP280;2801;50.972;7.856;2023-05-10T12:37:03;97133.03;;;16.10
24201;BMP280;2801;50.972;7.856;2023-05-10T12:39:43;97141.59;;;16.16
24201;BMP280;2801;50.972;7.856;2023-05-10T12:42:10;97148.19;;;16.18
24201;BMP280;2801;50.972;7.856;2023-05-10T12:44:38;97157.19;;;16.26
24201;BMP280;2801;50.972;7.856;2023-05-10T12:47:05;97154.22;;;16.34
24201;BMP280;2801;50.972;7.856;2023-05-10T12:49:32;97155.94;;;16.46
24201;BMP280;2801;50.972;7.856;2023-05-10T12:52:00;97159.16;;;16.58
24201;BMP280;2801;50.972;7.856;2023-05-10T12:54:28;97149.84;;;16.56
24201;BMP280;2801;50.972;7.856;2023-05-10T12:56:54;97149.16;;;16.62
24201;BMP280;2801;50.972;7.856;2023-05-10T12:59:21;97154.72;;;16.73
24201;BMP280;2801;50.972;7.856;2023-05-10T13:01:49;97150.13;;;16.77
24201;BMP280;2801;50.972;7.856;2023-05-10T13:04:16;97154.47;;;16.88
24201;BMP280;2801;50.972;7.856;2023-05-10T13:06:43;97153.00;;;16.94
24201;BMP280;2801;50.972;7.856;2023-05-10T13:09:10;97152.66;;;16.99
24201;BMP280;2801;50.972;7.856;2023-05-10T13:11:37;97155.72;;;16.94
24201;BMP280;2801;50.972;7.856;2023-05-10T13:14:04;97153.72;;;16.88
24201;BMP280;2801;50.972;7.856;2023-05-10T13:16:32;97156.81;;;16.90
24201;BMP280;2801;50.972;7.856;2023-05-10T13:18:59;97159.22;;;16.95
24201;BMP280;2801;50.972;7.856;2023-05-10T13:21:26;97156.50;;;16.95
24201;BMP280;2801;50.972;7.856;2023-05-10T13:23:53;97151.13;;;16.98
24201;BMP280;2801;50.972;7.856;2023-05-10T13:26:20;97152.66;;;16.99
24201;BMP280;2801;50.972;7.856;2023-05-10T13:28:47;97154.63;;;16.99
24201;BMP280;2801;50.972;7.856;2023-05-10T13:31:16;97153.47;;;17.00
24201;BMP280;2801;50.972;7.856;2023-05-10T13:33:43;97150.69;;;16.93
24201;BMP280;2801;50.972;7.856;2023-05-10T13:36:10;97144.88;;;16.91
24201;BMP280;2801;50.972;7.856;2023-05-10T13:38:37;97158.44;;;16.94
24201;BMP280;2801;50.972;7.856;2023-05-10T13:41:04;97156.53;;;16.98
24201;BMP280;2801;50.972;7.856;2023-05-10T13:43:31;97153.47;;;17.03
24201;BMP280;2801;50.972;7.856;2023-05-10T13:45:58;97141.53;;;17.08
24201;BMP280;2801;50.972;7.856;2023-05-10T13:48:25;97146.25;;;17.14
24201;BMP280;2801;50.972;7.856;2023-05-10T13:50:52;97146.66;;;17.16
24201;BMP280;2801;50.972;7.856;2023-05-10T13:53:19;97142.81;;;17.21
24201;BMP280;2801;50.972;7.856;2023-05-10T13:55:46;97142.16;;;17.31
24201;BMP280;2801;50.972;7.856;2023-05-10T13:58:13;97144.13;;;17.37
24201;BMP280;2801;50.972;7.856;2023-05-10T14:00:40;97141.94;;;17.50
24201;BMP280;2801;50.972;7.856;2023-05-10T14:03:07;97138.94;;;17.58
24201;BMP280;2801;50.972;7.856;2023-05-10T14:05:37;97146.38;;;17.72
24201;BMP280;2801;50.972;7.856;2023-05-10T14:08:04;97137.19;;;17.83
24201;BMP280;2801;50.972;7.856;2023-05-10T14:10:31;97148.72;;;17.73
24201;BMP280;2801;50.972;7.856;2023-05-10T14:12:58;97144.84;;;17.71
24201;BMP280;2801;50.972;7.856;2023-05-10T14:15:25;97147.13;;;17.69
24201;BMP280;2801;50.972;7.856;2023-05-10T14:17:52;97140.16;;;17.71
24201;BMP280;2801;50.972;7.856;2023-05-10T14:20:19;97145.22;;;17.73
24201;BMP280;2801;50.972;7.856;2023-05-10T14:22:46;97139.47;;;17.78
24201;BMP280;2801;50.972;7.856;2023-05-10T14:25:14;97139.03;;;17.72
24201;BMP280;2801;50.972;7.856;2023-05-10T14:27:42;97143.72;;;17.79
24201;BMP280;2801;50.972;7.856;2023-05-10T14:30:09;97134.81;;;17.78
24201;BMP280;2801;50.972;7.856;2023-05-10T14:32:36;97138.75;;;17.88
24201;BMP280;2801;50.972;7.856;2023-05-10T14:35:04;97140.28;;;17.82
24201;BMP280;2801;50.972;7.856;2023-05-10T14:37:33;97145.59;;;17.68
24201;BMP280;2801;50.972;7.856;2023-05-10T14:40:00;97151.31;;;17.59
24201;BMP280;2801;50.972;7.856;2023-05-10T14:42:27;97144.28;;;17.48
24201;BMP280;2801;50.972;7.856;2023-05-10T14:44:55;97152.03;;;17.49
24201;BMP280;2801;50.972;7.856;2023-05-10T14:47:22;97153.91;;;17.45
24201;BMP280;2801;50.972;7.856;2023-05-10T14:49:49;97154.69;;;17.42
24201;BMP280;2801;50.972;7.856;2023-05-10T14:52:16;97152.97;;;17.27
24201;BMP280;2801;50.972;7.856;2023-05-10T14:54:43;97151.00;;;17.24
24201;BMP280;2801;50.972;7.856;2023-05-10T14:57:10;97150.19;;;17.20
24201;BMP280;2801;50.972;7.856;2023-05-10T14:59:37;97135.84;;;17.20
24201;BMP280;2801;50.972;7.856;2023-05-10T15:02:04;97147.47;;;17.20